Time;durP1;ratioP1;P1;durP2;ratioP2;P2;SDS_P1;SDS_P2;PMS_P1;PMS_P2;Temp;Humidity;BMP_temperature;BMP_pressure;BME280_temperature;BME280_humidity;BME280_pressure;Samples;Min_cycle;Max_cycle;Signal;HPM_P1;HPM_P2
2023/09/19 00:01:25;;;;;;;;;;;18.50;99.90;;;;;;7301439;19;9242;-78
2023/09/19 00:03:54;;;;;;;;;;;18.40;99.90;;;;;;7285847;19;10597;-78
2023/09/19 00:06:26;;;;;;;;;;;18.40;99.90;;;;;;7307523;19;9604;-79
2023/09/19 00:08:55;;;;;;;;;;;18.40;99.90;;;;;;7319033;19;9273;-77
2023/09/19 00:11:26;;;;;;;;;;;18.40;99.90;;;;;;7319419;19;9508;-78
2023/09/19 00:13:57;;;;;;;;;;;18.40;99.90;;;;;;7313349;19;9282;-78
2023/09/19 00:16:26;;;;;;;;;;;18.30;99.90;;;;;;7315313;19;9226;-78
2023/09/19 00:18:55;;;;;;;;;;;18.30;99.90;;;;;;7318940;19;9182;-78
2023/09/19 00:21:24;;;;;;;;;;;18.30;99.90;;;;;;7310867;19;9459;-78
2023/09/19 00:23:54;;;;;;;;;;;18.00;99.90;;;;;;7318833;19;9339;-78
2023/09/19 00:26:25;;;;;;;;;;;17.90;99.90;;;;;;7320580;19;9109;-78
2023/09/19 00:28:57;;;;;;;;;;;17.90;99.90;;;;;;7318087;19;9258;-78
2023/09/19 00:31:26;;;;;;;;;;;17.90;99.90;;;;;;7317273;19;9247;-78
2023/09/19 00:33:56;;;;;;;;;;;18.00;99.90;;;;;;7312819;19;9472;-79
2023/09/19 00:36:25;;;;;;;;;;;18.10;99.90;;;;;;7292935;19;10475;-78
2023/09/19 00:38:55;;;;;;;;;;;18.20;99.90;;;;;;7279056;19;9613;-78
2023/09/19 00:41:30;;;;;;;;;;;18.10;99.90;;;;;;7305693;19;9558;-78
2023/09/19 00:43:59;;;;;;;;;;;18.00;99.90;;;;;;7314550;19;12575;-78
2023/09/19 00:46:29;;;;;;;;;;;18.00;99.90;;;;;;7320081;19;9594;-79
2023/09/19 00:48:58;;;;;;;;;;;17.90;99.90;;;;;;7325308;19;9513;-78
2023/09/19 00:51:29;;;;;;;;;;;17.90;99.90;;;;;;7319412;19;9619;-78
2023/09/19 00:53:59;;;;;;;;;;;17.80;99.90;;;;;;7325883;19;8944;-78
2023/09/19 00:56:31;;;;;;;;;;;17.70;99.90;;;;;;7323493;19;9210;-77
2023/09/19 00:59:22;;;;;;;;;;;17.70;99.90;;;;;;7322763;19;9223;-79
2023/09/19 01:01:54;;;;;;;;;;;17.60;99.90;;;;;;7321208;19;9482;-79
2023/09/19 01:04:22;;;;;;;;;;;17.70;99.90;;;;;;7323648;19;10969;-79
2023/09/19 01:06:53;;;;;;;;;;;17.60;99.90;;;;;;7323195;19;10318;-78
2023/09/19 01:09:22;;;;;;;;;;;17.60;99.90;;;;;;7322854;19;9271;-78
2023/09/19 01:12:00;;;;;;;;;;;17.50;99.90;;;;;;7321445;19;9436;-78
2023/09/19 01:14:41;;;;;;;;;;;17.40;99.90;;;;;;7324898;19;9526;-78
2023/09/19 01:17:22;;;;;;;;;;;17.40;99.90;;;;;;7322729;19;9701;-79
2023/09/19 01:20:16;;;;;;;;;;;17.30;99.90;;;;;;7319912;19;9173;-79
2023/09/19 01:23:01;;;;;;;;;;;17.20;99.90;;;;;;7321812;19;9275;-78
2023/09/19 01:26:09;;;;;;;;;;;17.10;99.90;;;;;;7322805;19;9716;-78
2023/09/19 01:28:57;;;;;;;;;;;17.20;99.90;;;;;;7323537;19;10961;-78
2023/09/19 01:31:35;;;;;;;;;;;17.20;99.90;;;;;;7322001;19;10393;-78
2023/09/19 01:34:07;;;;;;;;;;;17.20;99.90;;;;;;7317489;19;9532;-79
2023/09/19 01:36:38;;;;;;;;;;;17.30;99.90;;;;;;7322059;19;9590;-78
2023/09/19 01:39:13;;;;;;;;;;;17.50;99.90;;;;;;7324598;19;9474;-79
2023/09/19 01:42:00;;;;;;;;;;;17.40;99.90;;;;;;7322708;19;9153;-79
2023/09/19 01:44:39;;;;;;;;;;;17.30;99.90;;;;;;7321056;19;9575;-78
2023/09/19 01:47:37;;;;;;;;;;;17.20;99.90;;;;;;7318837;19;9526;-79
2023/09/19 01:50:20;;;;;;;;;;;17.20;99.90;;;;;;7318962;19;9224;-78
2023/09/19 01:52:56;;;;;;;;;;;17.20;99.90;;;;;;7322301;19;9336;-78
2023/09/19 01:55:33;;;;;;;;;;;17.30;99.90;;;;;;7323397;19;10431;-78
2023/09/19 01:58:10;;;;;;;;;;;17.30;99.90;;;;;;7320633;19;9000;-78
2023/09/19 02:00:44;;;;;;;;;;;17.20;99.90;;;;;;7321917;19;9393;-78
2023/09/19 02:03:17;;;;;;;;;;;17.10;99.90;;;;;;7323630;19;9514;-78
2023/09/19 02:05:53;;;;;;;;;;;17.00;99.90;;;;;;7323744;19;9235;-78
2023/09/19 02:08:24;;;;;;;;;;;17.10;99.90;;;;;;7320184;19;9298;-75
2023/09/19 02:10:54;;;;;;;;;;;17.20;99.90;;;;;;7321594;19;9255;-78
2023/09/19 02:13:27;;;;;;;;;;;16.90;99.90;;;;;;7321743;19;9461;-78
2023/09/19 02:15:56;;;;;;;;;;;17.00;99.90;;;;;;7321450;19;8976;-78
2023/09/19 02:18:30;;;;;;;;;;;16.90;99.90;;;;;;7321402;19;9133;-78
2023/09/19 02:20:59;;;;;;;;;;;16.90;99.90;;;;;;7314289;19;9002;-78
2023/09/19 02:23:29;;;;;;;;;;;16.90;99.90;;;;;;7321248;19;9180;-78
2023/09/19 02:26:00;;;;;;;;;;;16.80;99.90;;;;;;7324027;19;9516;-78
2023/09/19 02:28:31;;;;;;;;;;;16.80;99.90;;;;;;7326231;19;9798;-78
2023/09/19 02:31:00;;;;;;;;;;;16.80;99.90;;;;;;7319229;19;9286;-78
2023/09/19 02:33:32;;;;;;;;;;;16.60;99.90;;;;;;7322151;19;9249;-78
2023/09/19 02:36:03;;;;;;;;;;;16.60;99.90;;;;;;7299868;19;9304;-78
2023/09/19 02:38:33;;;;;;;;;;;16.50;99.90;;;;;;7295586;19;10365;-78
2023/09/19 02:41:02;;;;;;;;;;;16.60;99.90;;;;;;7297189;19;9291;-78
2023/09/19 02:43:30;;;;;;;;;;;16.40;99.90;;;;;;7296185;19;9694;-78
2023/09/19 02:45:59;;;;;;;;;;;16.10;99.90;;;;;;7295857;19;9479;-78
2023/09/19 02:48:29;;;;;;;;;;;16.00;99.90;;;;;;7313194;19;9641;-78
2023/09/19 02:51:01;;;;;;;;;;;15.90;99.90;;;;;;7322148;19;9177;-78
2023/09/19 02:53:30;;;;;;;;;;;15.90;99.90;;;;;;7320630;19;9318;-78
2023/09/19 02:56:01;;;;;;;;;;;16.00;99.90;;;;;;7308862;19;9622;-78
2023/09/19 02:58:30;;;;;;;;;;;15.80;99.90;;;;;;7321060;19;10500;-78
2023/09/19 03:01:19;;;;;;;;;;;15.80;99.90;;;;;;7317419;19;9248;-78
2023/09/19 03:03:49;;;;;;;;;;;15.80;99.90;;;;;;7317676;19;10107;-78
2023/09/19 03:06:21;;;;;;;;;;;15.80;99.90;;;;;;7320707;19;9246;-78
2023/09/19 03:08:51;;;;;;;;;;;15.80;99.90;;;;;;7319926;19;9477;-78
2023/09/19 03:11:22;;;;;;;;;;;15.80;99.90;;;;;;7320802;19;9817;-78
2023/09/19 03:13:54;;;;;;;;;;;15.80;99.90;;;;;;7314397;19;9478;-78
2023/09/19 03:16:25;;;;;;;;;;;15.80;99.90;;;;;;7320707;19;9421;-78
2023/09/19 03:18:54;;;;;;;;;;;15.90;99.90;;;;;;7316119;19;9814;-78
2023/09/19 03:21:25;;;;;;;;;;;15.80;99.90;;;;;;7316834;19;9489;-78
2023/09/19 03:23:54;;;;;;;;;;;15.60;99.90;;;;;;7320619;19;9142;-78
2023/09/19 03:26:26;;;;;;;;;;;15.70;99.90;;;;;;7310089;19;9251;-78
2023/09/19 03:28:55;;;;;;;;;;;15.80;99.90;;;;;;7312495;19;10735;-79
2023/09/19 03:31:24;;;;;;;;;;;15.90;99.90;;;;;;7309095;19;9249;-78
2023/09/19 03:33:53;;;;;;;;;;;15.90;99.90;;;;;;7311861;19;10567;-78
2023/09/19 03:36:24;;;;;;;;;;;15.90;99.90;;;;;;7314914;19;9498;-78
2023/09/19 03:38:53;;;;;;;;;;;15.80;99.90;;;;;;7316168;19;9464;-78
2023/09/19 03:41:22;;;;;;;;;;;15.60;99.90;;;;;;7312307;19;9586;-78
2023/09/19 03:43:51;;;;;;;;;;;15.50;99.90;;;;;;7313814;19;9237;-78
2023/09/19 03:46:20;;;;;;;;;;;15.50;99.90;;;;;;7319339;19;9257;-78
2023/09/19 03:48:50;;;;;;;;;;;15.60;99.90;;;;;;7314062;19;8944;-78
2023/09/19 03:51:19;;;;;;;;;;;15.90;99.90;;;;;;7318931;19;9266;-78
2023/09/19 03:54:10;;;;;;;;;;;16.00;99.90;;;;;;7318804;19;9431;-79
2023/09/19 03:56:39;;;;;;;;;;;16.10;99.90;;;;;;7311578;19;9290;-78
2023/09/19 03:59:09;;;;;;;;;;;16.10;99.90;;;;;;7313540;19;9251;-78
2023/09/19 04:01:39;;;;;;;;;;;16.10;99.90;;;;;;7318031;19;9125;-78
2023/09/19 04:04:29;;;;;;;;;;;16.10;99.90;;;;;;7313484;19;9283;-78
2023/09/19 04:06:58;;;;;;;;;;;16.00;99.90;;;;;;7317644;19;9539;-78
2023/09/19 04:09:29;;;;;;;;;;;16.00;99.90;;;;;;7317821;19;9227;-78
2023/09/19 04:11:58;;;;;;;;;;;16.00;99.90;;;;;;7323091;19;9244;-79
2023/09/19 04:14:27;;;;;;;;;;;16.10;99.90;;;;;;7316609;19;10985;-78
2023/09/19 04:16:56;;;;;;;;;;;16.10;99.90;;;;;;7321667;19;9204;-78
2023/09/19 04:19:25;;;;;;;;;;;16.00;99.90;;;;;;7324775;19;9253;-79
2023/09/19 04:21:54;;;;;;;;;;;15.90;99.90;;;;;;7327225;19;9242;-78
2023/09/19 04:24:46;;;;;;;;;;;15.80;99.90;;;;;;7324182;19;9475;-79
2023/09/19 04:27:35;;;;;;;;;;;15.70;99.90;;;;;;7323758;19;10430;-78
2023/09/19 04:30:11;;;;;;;;;;;15.80;99.90;;;;;;7325381;19;9695;-78
2023/09/19 04:32:41;;;;;;;;;;;15.90;99.90;;;;;;7322038;19;9281;-78
2023/09/19 04:35:11;;;;;;;;;;;16.00;99.90;;;;;;7318632;19;9290;-78
2023/09/19 04:37:41;;;;;;;;;;;16.10;99.90;;;;;;7324643;19;9396;-78
2023/09/19 04:40:17;;;;;;;;;;;16.10;99.90;;;;;;7313133;19;9477;-78
2023/09/19 04:42:46;;;;;;;;;;;16.30;99.90;;;;;;7316379;19;9403;-78
2023/09/19 04:45:16;;;;;;;;;;;16.50;99.90;;;;;;7324762;19;9310;-78
2023/09/19 04:47:46;;;;;;;;;;;16.50;99.90;;;;;;7320190;19;9704;-78
2023/09/19 04:50:16;;;;;;;;;;;16.50;99.90;;;;;;7317583;19;9540;-78
2023/09/19 04:52:50;;;;;;;;;;;16.60;99.90;;;;;;7323786;19;11075;-78
2023/09/19 04:55:22;;;;;;;;;;;16.50;99.90;;;;;;7321200;19;9481;-78
2023/09/19 04:57:53;;;;;;;;;;;16.40;99.90;;;;;;7317182;19;9540;-78
2023/09/19 05:00:25;;;;;;;;;;;16.30;99.90;;;;;;7325266;19;9253;-78
2023/09/19 05:02:56;;;;;;;;;;;16.30;99.90;;;;;;7322841;19;9123;-78
2023/09/19 05:05:26;;;;;;;;;;;16.40;99.90;;;;;;7323437;19;9211;-78
2023/09/19 05:07:56;;;;;;;;;;;16.40;99.90;;;;;;7325331;19;9273;-78
2023/09/19 05:10:28;;;;;;;;;;;16.30;99.90;;;;;;7316042;19;9390;-78
2023/09/19 05:12:57;;;;;;;;;;;16.30;99.90;;;;;;7324131;19;9566;-79
2023/09/19 05:15:26;;;;;;;;;;;16.20;99.90;;;;;;7323774;19;10327;-78
2023/09/19 05:17:55;;;;;;;;;;;16.30;99.90;;;;;;7326126;19;10166;-78
2023/09/19 05:20:29;;;;;;;;;;;16.30;99.90;;;;;;7323082;19;10729;-78
2023/09/19 05:23:05;;;;;;;;;;;16.50;99.90;;;;;;7322107;19;9468;-78
2023/09/19 05:25:39;;;;;;;;;;;16.60;99.90;;;;;;7315105;19;9324;-78
2023/09/19 05:28:10;;;;;;;;;;;16.60;99.90;;;;;;7312922;19;9273;-78
2023/09/19 05:30:40;;;;;;;;;;;16.80;99.90;;;;;;7317757;19;9567;-79
2023/09/19 05:33:09;;;;;;;;;;;16.90;99.90;;;;;;7314190;19;9459;-78
2023/09/19 05:35:39;;;;;;;;;;;16.80;99.90;;;;;;7312369;19;10928;-76
2023/09/19 05:38:09;;;;;;;;;;;16.70;99.90;;;;;;7317206;19;9222;-75
2023/09/19 05:40:42;;;;;;;;;;;16.60;99.90;;;;;;7323038;19;9163;-83
2023/09/19 05:43:10;;;;;;;;;;;16.50;99.90;;;;;;7319484;19;9337;-78
2023/09/19 05:45:40;;;;;;;;;;;16.30;99.90;;;;;;7322958;19;9195;-78
2023/09/19 05:48:29;;;;;;;;;;;16.20;99.90;;;;;;7320516;19;9242;-78
2023/09/19 05:50:59;;;;;;;;;;;16.00;99.90;;;;;;7314762;19;9245;-75
2023/09/19 05:53:28;;;;;;;;;;;15.90;99.90;;;;;;7316987;19;9167;-75
2023/09/19 05:56:20;;;;;;;;;;;15.90;99.90;;;;;;7316142;19;9249;-75
2023/09/19 05:58:51;;;;;;;;;;;15.80;99.90;;;;;;7317708;19;10179;-71
2023/09/19 06:01:20;;;;;;;;;;;15.80;99.90;;;;;;7319257;19;9210;-72
2023/09/19 06:03:50;;;;;;;;;;;15.70;99.90;;;;;;7318655;19;9494;-72
2023/09/19 06:06:24;;;;;;;;;;;15.70;99.90;;;;;;7320910;19;9281;-72
2023/09/19 06:08:53;;;;;;;;;;;15.70;99.90;;;;;;7320403;19;9222;-73
2023/09/19 06:11:26;;;;;;;;;;;15.70;99.90;;;;;;7323256;19;9314;-73
2023/09/19 06:13:55;;;;;;;;;;;15.80;99.90;;;;;;7321577;19;10656;-72
2023/09/19 06:16:25;;;;;;;;;;;15.80;99.90;;;;;;7322664;19;9647;-73
2023/09/19 06:18:55;;;;;;;;;;;15.90;99.90;;;;;;7311814;19;9511;-76
2023/09/19 06:21:25;;;;;;;;;;;15.90;99.90;;;;;;7310720;19;9287;-76
2023/09/19 06:23:54;;;;;;;;;;;15.90;99.90;;;;;;7305210;19;9253;-76
2023/09/19 06:26:26;;;;;;;;;;;15.90;99.90;;;;;;7314234;19;9472;-76
2023/09/19 06:29:15;;;;;;;;;;;15.90;99.90;;;;;;7317701;19;9323;-76
2023/09/19 06:31:44;;;;;;;;;;;16.10;99.90;;;;;;7320073;19;9292;-76
2023/09/19 06:34:15;;;;;;;;;;;16.10;99.90;;;;;;7315091;19;9276;-76
2023/09/19 06:36:44;;;;;;;;;;;16.10;99.90;;;;;;7321740;19;8944;-76
2023/09/19 06:39:13;;;;;;;;;;;16.20;99.90;;;;;;7318808;19;9237;-76
2023/09/19 06:41:45;;;;;;;;;;;16.20;99.90;;;;;;7321148;19;9511;-76
2023/09/19 06:44:14;;;;;;;;;;;16.30;99.90;;;;;;7315788;19;9342;-76
2023/09/19 06:46:46;;;;;;;;;;;16.20;99.90;;;;;;7313847;19;9804;-76
2023/09/19 06:49:15;;;;;;;;;;;16.20;99.90;;;;;;7320841;19;9243;-76
2023/09/19 06:51:44;;;;;;;;;;;16.20;99.90;;;;;;7308597;19;9236;-76
2023/09/19 06:54:13;;;;;;;;;;;16.20;99.90;;;;;;7320639;19;9468;-76
2023/09/19 06:56:44;;;;;;;;;;;16.20;99.90;;;;;;7318527;19;9260;-76
2023/09/19 06:59:14;;;;;;;;;;;16.20;99.90;;;;;;7320953;19;9329;-76
2023/09/19 07:01:44;;;;;;;;;;;16.20;99.90;;;;;;7318236;19;9478;-76
2023/09/19 07:04:13;;;;;;;;;;;16.30;99.90;;;;;;7316981;19;9222;-76
2023/09/19 07:06:43;;;;;;;;;;;16.30;99.90;;;;;;7318046;19;9271;-76
2023/09/19 07:09:12;;;;;;;;;;;16.30;99.90;;;;;;7319864;19;9225;-76
2023/09/19 07:11:41;;;;;;;;;;;16.50;99.90;;;;;;7319809;19;9598;-76
2023/09/19 07:14:13;;;;;;;;;;;16.50;99.90;;;;;;7309176;19;9300;-76
2023/09/19 07:16:44;;;;;;;;;;;16.70;99.90;;;;;;7319532;19;9380;-76
2023/09/19 07:19:15;;;;;;;;;;;16.80;99.90;;;;;;7318632;19;9465;-76
2023/09/19 07:21:44;;;;;;;;;;;17.00;99.90;;;;;;7317237;19;9325;-76
2023/09/19 07:24:13;;;;;;;;;;;17.10;99.90;;;;;;7316402;19;9460;-76
2023/09/19 07:26:42;;;;;;;;;;;17.30;99.90;;;;;;7318095;19;9127;-76
2023/09/19 07:29:14;;;;;;;;;;;17.60;99.90;;;;;;7319606;19;10375;-76
2023/09/19 07:31:44;;;;;;;;;;;17.60;99.90;;;;;;7318766;19;9446;-76
2023/09/19 07:34:13;;;;;;;;;;;17.60;99.90;;;;;;7316405;19;9277;-76
2023/09/19 07:36:43;;;;;;;;;;;17.60;99.90;;;;;;7318969;19;9223;-76
2023/09/19 07:39:12;;;;;;;;;;;17.60;99.90;;;;;;7316313;19;9218;-76
2023/09/19 07:41:41;;;;;;;;;;;17.70;99.90;;;;;;7316451;19;9183;-76
2023/09/19 07:44:33;;;;;;;;;;;17.60;99.90;;;;;;7318928;19;9214;-76
2023/09/19 07:47:03;;;;;;;;;;;17.50;99.90;;;;;;7322816;19;9477;-76
2023/09/19 07:49:32;;;;;;;;;;;17.50;99.90;;;;;;7326298;19;9258;-76
2023/09/19 07:52:02;;;;;;;;;;;17.50;99.90;;;;;;7327343;19;9506;-76
2023/09/19 07:54:35;;;;;;;;;;;17.50;99.90;;;;;;7323098;19;9282;-76
2023/09/19 07:57:04;;;;;;;;;;;17.30;99.90;;;;;;7317771;19;9275;-76
2023/09/19 07:59:36;;;;;;;;;;;17.40;99.90;;;;;;7324833;19;9119;-76
2023/09/19 08:02:05;;;;;;;;;;;17.40;99.90;;;;;;7323345;19;9122;-76
2023/09/19 08:04:34;;;;;;;;;;;17.40;99.90;;;;;;7320081;19;9333;-76
2023/09/19 08:07:05;;;;;;;;;;;17.50;99.90;;;;;;7325625;19;9502;-76
2023/09/19 08:09:38;;;;;;;;;;;17.50;99.90;;;;;;7324456;19;9491;-76
2023/09/19 08:12:08;;;;;;;;;;;17.40;99.90;;;;;;7320236;19;9434;-76
2023/09/19 08:14:41;;;;;;;;;;;17.50;99.90;;;;;;7316359;19;11010;-76
2023/09/19 08:17:10;;;;;;;;;;;17.50;99.90;;;;;;7313023;19;10468;-76
2023/09/19 08:19:41;;;;;;;;;;;17.50;99.90;;;;;;7321458;19;10162;-76
2023/09/19 08:22:11;;;;;;;;;;;17.30;99.90;;;;;;7318159;19;9261;-76
2023/09/19 08:24:42;;;;;;;;;;;17.40;99.90;;;;;;7313977;19;9524;-76
2023/09/19 08:27:12;;;;;;;;;;;17.40;99.90;;;;;;7322394;19;9213;-76
2023/09/19 08:29:44;;;;;;;;;;;17.40;99.90;;;;;;7323494;19;8944;-77
2023/09/19 08:32:14;;;;;;;;;;;17.50;99.90;;;;;;7316561;19;10155;-77
2023/09/19 08:34:43;;;;;;;;;;;17.60;99.90;;;;;;7310551;19;9254;-76
2023/09/19 08:37:12;;;;;;;;;;;17.70;99.90;;;;;;7320205;19;9324;-77
2023/09/19 08:39:41;;;;;;;;;;;17.80;99.90;;;;;;7322892;19;9527;-76
2023/09/19 08:42:11;;;;;;;;;;;17.80;99.90;;;;;;7320782;19;9456;-76
2023/09/19 08:44:43;;;;;;;;;;;17.90;99.90;;;;;;7320103;19;9532;-76
2023/09/19 08:47:15;;;;;;;;;;;18.00;99.90;;;;;;7316697;19;9389;-76
2023/09/19 08:49:56;;;;;;;;;;;18.10;99.90;;;;;;7321379;19;9549;-76
2023/09/19 08:52:30;;;;;;;;;;;18.10;99.90;;;;;;7319683;19;9239;-77
2023/09/19 08:55:04;;;;;;;;;;;18.20;99.90;;;;;;7318291;19;9253;-76
2023/09/19 08:57:41;;;;;;;;;;;18.20;99.90;;;;;;7320149;19;9284;-76
2023/09/19 09:00:17;;;;;;;;;;;18.40;99.90;;;;;;7320223;19;10340;-76
2023/09/19 09:02:47;;;;;;;;;;;18.40;99.90;;;;;;7316953;19;9365;-76
2023/09/19 09:05:40;;;;;;;;;;;18.50;99.90;;;;;;7312392;19;9337;-76
2023/09/19 09:08:10;;;;;;;;;;;18.50;99.90;;;;;;7321242;19;9209;-77
2023/09/19 09:10:40;;;;;;;;;;;18.60;99.90;;;;;;7322326;19;9284;-76
2023/09/19 09:13:10;;;;;;;;;;;18.50;99.90;;;;;;7318384;19;9458;-77
2023/09/19 09:15:44;;;;;;;;;;;18.50;99.90;;;;;;7315131;19;11545;-77
2023/09/19 09:18:14;;;;;;;;;;;18.40;99.90;;;;;;7321918;19;10075;-77
2023/09/19 09:20:44;;;;;;;;;;;18.30;99.90;;;;;;7319884;19;9324;-76
2023/09/19 09:23:13;;;;;;;;;;;18.50;99.90;;;;;;7321910;19;9173;-76
2023/09/19 09:26:02;;;;;;;;;;;18.60;99.90;;;;;;7321041;19;9376;-76
2023/09/19 09:28:33;;;;;;;;;;;18.70;99.90;;;;;;7322675;19;10044;-76
2023/09/19 09:31:08;;;;;;;;;;;18.80;99.90;;;;;;7320099;19;9301;-77
2023/09/19 09:33:37;;;;;;;;;;;18.90;99.90;;;;;;7316858;19;9469;-76
2023/09/19 09:36:08;;;;;;;;;;;19.00;99.90;;;;;;7315803;19;9255;-76
2023/09/19 09:38:48;;;;;;;;;;;19.00;99.90;;;;;;7322339;19;9035;-76
2023/09/19 09:41:27;;;;;;;;;;;19.00;99.90;;;;;;7320362;19;9431;-76
2023/09/19 09:43:59;;;;;;;;;;;19.00;99.90;;;;;;7320418;19;10356;-76
2023/09/19 09:49:33;;;;;;;;;;;19.10;99.90;;;;;;7322667;19;10154;-77
2023/09/19 09:52:07;;;;;;;;;;;19.10;99.90;;;;;;7319018;19;10701;-76
2023/09/19 09:54:39;;;;;;;;;;;19.20;99.90;;;;;;7320144;19;9245;-76
2023/09/19 09:57:17;;;;;;;;;;;19.50;99.90;;;;;;7314247;19;9281;-76
2023/09/19 09:59:53;;;;;;;;;;;19.50;99.90;;;;;;7319931;19;9222;-76
2023/09/19 10:02:36;;;;;;;;;;;19.50;99.90;;;;;;7315792;19;9181;-75
2023/09/19 10:05:20;;;;;;;;;;;19.60;99.90;;;;;;7316020;19;9564;-77
2023/09/19 10:07:53;;;;;;;;;;;19.70;99.90;;;;;;7307758;19;10351;-75
2023/09/19 10:10:43;;;;;;;;;;;19.70;99.90;;;;;;7316421;19;9224;-76
2023/09/19 10:13:14;;;;;;;;;;;19.70;99.90;;;;;;7320944;19;9245;-76
2023/09/19 10:15:48;;;;;;;;;;;19.60;99.90;;;;;;7320785;19;9166;-75
2023/09/19 10:18:23;;;;;;;;;;;19.50;99.90;;;;;;7320121;19;9346;-75
2023/09/19 10:20:53;;;;;;;;;;;19.50;99.90;;;;;;7307630;19;9104;-76
2023/09/19 10:23:25;;;;;;;;;;;19.60;99.90;;;;;;7306575;19;9245;-75
2023/09/19 10:25:57;;;;;;;;;;;19.50;99.90;;;;;;7313898;19;9254;-75
2023/09/19 10:28:30;;;;;;;;;;;19.60;99.90;;;;;;7304657;19;9280;-76
2023/09/19 10:31:03;;;;;;;;;;;19.70;99.90;;;;;;7317278;19;10491;-75
2023/09/19 10:33:41;;;;;;;;;;;19.60;99.90;;;;;;7321399;19;9458;-76
2023/09/19 10:36:13;;;;;;;;;;;19.70;99.90;;;;;;7315580;19;9272;-75
2023/09/19 10:38:48;;;;;;;;;;;19.70;99.90;;;;;;7314928;19;9249;-75
2023/09/19 10:41:21;;;;;;;;;;;19.80;99.90;;;;;;7322872;19;9165;-76
2023/09/19 10:43:54;;;;;;;;;;;20.00;99.90;;;;;;7322631;19;9239;-76
2023/09/19 10:46:25;;;;;;;;;;;20.00;99.90;;;;;;7322482;19;9273;-76
2023/09/19 10:49:01;;;;;;;;;;;20.00;99.90;;;;;;7320752;19;9235;-75
2023/09/19 10:51:40;;;;;;;;;;;20.00;99.90;;;;;;7318684;19;9684;-75
2023/09/19 10:54:16;;;;;;;;;;;20.10;99.90;;;;;;7322635;19;9228;-75
2023/09/19 10:56:50;;;;;;;;;;;20.10;99.90;;;;;;7319673;19;9450;-76
2023/09/19 10:59:20;;;;;;;;;;;20.10;99.20;;;;;;7322183;19;9222;-76
2023/09/19 11:01:51;;;;;;;;;;;20.10;98.60;;;;;;7319259;19;9274;-76
2023/09/19 11:04:29;;;;;;;;;;;20.10;99.40;;;;;;7318273;19;9444;-76
2023/09/19 11:07:11;;;;;;;;;;;20.10;99.30;;;;;;7315616;19;9430;-76
2023/09/19 11:09:48;;;;;;;;;;;20.20;98.40;;;;;;7315891;19;9287;-76
2023/09/19 11:12:52;;;;;;;;;;;20.20;98.60;;;;;;7316517;19;9235;-76
2023/09/19 11:15:48;;;;;;;;;;;20.10;98.00;;;;;;7319580;19;9447;-76
2023/09/19 11:19:01;;;;;;;;;;;20.10;98.40;;;;;;7320458;19;9411;-76
2023/09/19 11:21:59;;;;;;;;;;;20.00;98.00;;;;;;7313978;19;9308;-76
2023/09/19 11:24:31;;;;;;;;;;;20.10;99.60;;;;;;7318836;19;9402;-75
2023/09/19 11:27:18;;;;;;;;;;;20.20;99.10;;;;;;7320310;19;9521;-76
2023/09/19 11:29:49;;;;;;;;;;;20.30;98.10;;;;;;7315120;19;9514;-76
2023/09/19 11:32:19;;;;;;;;;;;20.20;98.40;;;;;;7314963;19;9458;-76
2023/09/19 11:34:52;;;;;;;;;;;20.30;97.10;;;;;;7316923;19;9295;-75
2023/09/19 11:38:10;;;;;;;;;;;20.20;98.20;;;;;;7315535;19;9235;-76
2023/09/19 11:40:40;;;;;;;;;;;20.30;97.50;;;;;;7312376;19;9466;-76
2023/09/19 11:43:31;;;;;;;;;;;20.30;97.50;;;;;;7318578;19;9167;-76
2023/09/19 11:46:10;;;;;;;;;;;20.30;98.00;;;;;;7316097;19;9218;-76
2023/09/19 11:48:42;;;;;;;;;;;20.40;97.50;;;;;;7315438;19;9273;-76
2023/09/19 11:51:23;;;;;;;;;;;20.40;96.60;;;;;;7319758;19;9174;-76
2023/09/19 11:53:57;;;;;;;;;;;20.40;97.40;;;;;;7316287;19;9523;-75
2023/09/19 11:56:27;;;;;;;;;;;20.50;97.00;;;;;;7319536;19;9130;-76
2023/09/19 11:59:00;;;;;;;;;;;20.50;95.80;;;;;;7314054;19;9692;-76
2023/09/19 12:01:32;;;;;;;;;;;20.50;96.50;;;;;;7317129;19;9224;-76
2023/09/19 12:04:04;;;;;;;;;;;20.40;96.60;;;;;;7313728;19;9226;-76
2023/09/19 12:06:35;;;;;;;;;;;20.30;97.10;;;;;;7317487;19;9453;-76
2023/09/19 12:09:11;;;;;;;;;;;20.20;96.50;;;;;;7316043;19;9246;-76
2023/09/19 12:11:45;;;;;;;;;;;20.20;96.70;;;;;;7317209;19;9206;-76
2023/09/19 12:14:26;;;;;;;;;;;20.20;97.00;;;;;;7317038;19;9222;-76
2023/09/19 12:16:57;;;;;;;;;;;20.20;97.00;;;;;;7307630;19;9470;-76
2023/09/19 12:19:26;;;;;;;;;;;20.20;96.20;;;;;;7319206;19;9241;-76
2023/09/19 12:22:15;;;;;;;;;;;20.20;97.20;;;;;;7314343;19;9257;-76
2023/09/19 12:24:47;;;;;;;;;;;20.10;97.20;;;;;;7315821;19;9579;-76
2023/09/19 12:27:46;;;;;;;;;;;20.10;97.10;;;;;;7313249;19;9180;-76
2023/09/19 12:30:17;;;;;;;;;;;20.10;98.00;;;;;;7314272;19;9537;-75
2023/09/19 12:32:48;;;;;;;;;;;20.10;98.10;;;;;;7316835;19;9156;-75
2023/09/19 12:35:31;;;;;;;;;;;20.00;97.30;;;;;;7313196;19;9299;-75
2023/09/19 12:38:00;;;;;;;;;;;20.10;97.70;;;;;;7320283;19;9475;-75
2023/09/19 12:40:35;;;;;;;;;;;20.20;97.10;;;;;;7312908;19;9153;-75
2023/09/19 12:43:05;;;;;;;;;;;20.00;97.90;;;;;;7317842;19;9576;-75
2023/09/19 12:45:37;;;;;;;;;;;19.90;98.10;;;;;;7322390;19;9467;-75
2023/09/19 12:48:29;;;;;;;;;;;19.90;98.40;;;;;;7319215;19;9242;-75
2023/09/19 12:51:09;;;;;;;;;;;19.80;98.10;;;;;;7322316;19;9622;-75
2023/09/19 12:53:42;;;;;;;;;;;19.70;98.70;;;;;;7325477;19;9147;-75
2023/09/19 12:56:18;;;;;;;;;;;19.70;99.20;;;;;;7324891;19;9259;-75
2023/09/19 12:58:56;;;;;;;;;;;19.70;99.30;;;;;;7324601;19;9326;-75
2023/09/19 13:01:27;;;;;;;;;;;19.60;99.30;;;;;;7322874;19;9258;-75
2023/09/19 13:04:18;;;;;;;;;;;19.60;99.50;;;;;;7321127;19;9301;-75
2023/09/19 13:06:48;;;;;;;;;;;19.70;99.40;;;;;;7323413;19;9400;-74
2023/09/19 13:09:20;;;;;;;;;;;19.90;99.40;;;;;;7324324;19;9167;-74
2023/09/19 13:11:53;;;;;;;;;;;19.80;99.40;;;;;;7321712;19;9263;-75
2023/09/19 13:14:28;;;;;;;;;;;19.90;99.20;;;;;;7324092;19;9348;-75
2023/09/19 13:17:04;;;;;;;;;;;19.90;99.10;;;;;;7323941;19;9109;-75
2023/09/19 13:19:43;;;;;;;;;;;19.90;98.40;;;;;;7323409;19;9497;-75
2023/09/19 13:22:44;;;;;;;;;;;20.00;98.80;;;;;;7324562;19;9232;-75
2023/09/19 13:25:17;;;;;;;;;;;20.00;99.40;;;;;;7322158;19;9666;-75
2023/09/19 13:27:51;;;;;;;;;;;20.00;98.20;;;;;;7321742;19;9222;-75
2023/09/19 13:30:22;;;;;;;;;;;19.80;99.00;;;;;;7316288;19;9550;-76
2023/09/19 13:32:52;;;;;;;;;;;19.70;99.50;;;;;;7315247;19;9550;-76
2023/09/19 13:35:22;;;;;;;;;;;19.60;99.50;;;;;;7318734;19;9258;-75
2023/09/19 13:37:52;;;;;;;;;;;19.60;99.90;;;;;;7312921;19;9073;-74
2023/09/19 13:40:21;;;;;;;;;;;19.50;99.90;;;;;;7306700;19;9580;-75
2023/09/19 13:42:57;;;;;;;;;;;19.50;99.90;;;;;;7313845;19;9170;-74
2023/09/19 13:45:30;;;;;;;;;;;19.40;99.90;;;;;;7320685;19;9175;-75
2023/09/19 13:47:59;;;;;;;;;;;19.50;99.90;;;;;;7322197;19;9487;-75
2023/09/19 13:50:29;;;;;;;;;;;19.50;99.90;;;;;;7323312;19;9452;-75
2023/09/19 13:53:00;;;;;;;;;;;19.50;99.90;;;;;;7323337;19;9493;-74
2023/09/19 13:55:29;;;;;;;;;;;19.50;99.90;;;;;;7324085;19;9154;-75
2023/09/19 13:58:00;;;;;;;;;;;19.50;99.90;;;;;;7322711;19;9750;-75
2023/09/19 14:00:29;;;;;;;;;;;19.60;99.90;;;;;;7322648;19;9403;-75
2023/09/19 14:02:58;;;;;;;;;;;19.70;99.90;;;;;;7323182;19;10338;-74
2023/09/19 14:05:27;;;;;;;;;;;19.60;99.90;;;;;;7320022;19;9617;-74
2023/09/19 14:07:58;;;;;;;;;;;19.60;99.90;;;;;;7322599;19;9475;-74
2023/09/19 14:10:27;;;;;;;;;;;19.40;99.90;;;;;;7321111;19;9128;-75
2023/09/19 14:12:57;;;;;;;;;;;19.40;99.90;;;;;;7323460;19;9169;-75
2023/09/19 14:15:32;;;;;;;;;;;19.50;99.90;;;;;;7322804;19;9274;-75
2023/09/19 14:18:01;;;;;;;;;;;19.50;99.90;;;;;;7323752;19;8944;-75
2023/09/19 14:20:31;;;;;;;;;;;19.50;99.90;;;;;;7318648;19;9590;-75
2023/09/19 14:23:01;;;;;;;;;;;19.50;99.90;;;;;;7322690;19;9284;-75
2023/09/19 14:25:50;;;;;;;;;;;19.50;99.90;;;;;;7322728;19;9284;-75
2023/09/19 14:28:19;;;;;;;;;;;19.50;99.90;;;;;;7316768;19;9137;-75
2023/09/19 14:30:51;;;;;;;;;;;19.60;99.90;;;;;;7319843;19;8944;-74
2023/09/19 14:33:20;;;;;;;;;;;19.60;99.90;;;;;;7314297;19;9537;-74
2023/09/19 14:35:49;;;;;;;;;;;19.50;99.90;;;;;;7308617;19;9534;-72
2023/09/19 14:38:19;;;;;;;;;;;19.60;99.90;;;;;;7321405;19;11924;-73
2023/09/19 14:40:49;;;;;;;;;;;19.60;99.90;;;;;;7321663;19;9515;-72
2023/09/19 14:43:19;;;;;;;;;;;19.60;99.90;;;;;;7322931;19;9263;-72
2023/09/19 14:45:51;;;;;;;;;;;19.60;99.90;;;;;;7320363;19;9225;-74
2023/09/19 14:48:22;;;;;;;;;;;19.60;99.90;;;;;;7320778;19;9456;-73
2023/09/19 14:50:51;;;;;;;;;;;19.60;99.90;;;;;;7320839;19;10312;-72
2023/09/19 14:53:20;;;;;;;;;;;19.50;99.90;;;;;;7322672;19;9271;-73
2023/09/19 14:55:51;;;;;;;;;;;19.50;99.90;;;;;;7318633;19;9393;-73
2023/09/19 14:58:21;;;;;;;;;;;19.60;99.90;;;;;;7319682;19;9510;-74
2023/09/19 15:00:53;;;;;;;;;;;19.60;99.90;;;;;;7317078;19;9167;-72
2023/09/19 15:03:22;;;;;;;;;;;19.60;99.90;;;;;;7315819;19;9440;-72
2023/09/19 15:05:51;;;;;;;;;;;19.60;99.90;;;;;;7317222;19;9337;-71
2023/09/19 15:08:20;;;;;;;;;;;19.60;99.90;;;;;;7320671;19;9234;-73